sensor_id;sensor_type;location;lat;lon;timestamp;temperature;humidity
18733;DHT22;9495;51.210;2.934;2022-10-23T00:01:13;15.60;99.90
18733;DHT22;9495;51.210;2.934;2022-10-23T00:03:41;15.60;99.90
18733;DHT22;9495;51.210;2.934;2022-10-23T00:06:10;15.60;99.90
18733;DHT22;9495;51.210;2.934;2022-10-23T00:08:39;15.60;99.90
18733;DHT22;9495;51.210;2.934;2022-10-23T00:11:08;15.60;99.90
18733;DHT22;9495;51.210;2.934;2022-10-23T00:13:36;15.60;99.90
18733;DHT22;9495;51.210;2.934;2022-10-23T00:16:06;15.60;99.90
18733;DHT22;9495;51.210;2.934;2022-10-23T00:18:38;15.60;99.90
18733;DHT22;9495;51.210;2.934;2022-10-23T00:21:08;15.60;99.90
18733;DHT22;9495;51.210;2.934;2022-10-23T00:23:36;15.60;99.90
18733;DHT22;9495;51.210;2.934;2022-10-23T00:26:06;15.60;99.90
18733;DHT22;9495;51.210;2.934;2022-10-23T00:28:37;15.60;99.90
18733;DHT22;9495;51.210;2.934;2022-10-23T00:31:06;15.60;99.90
18733;DHT22;9495;51.210;2.934;2022-10-23T00:33:35;15.60;99.90
18733;DHT22;9495;51.210;2.934;2022-10-23T00:36:05;15.60;99.90
18733;DHT22;9495;51.210;2.934;2022-10-23T00:38:34;15.60;99.90
18733;DHT22;9495;51.210;2.934;2022-10-23T00:41:03;15.60;99.90
18733;DHT22;9495;51.210;2.934;2022-10-23T00:43:32;15.60;99.90
18733;DHT22;9495;51.210;2.934;2022-10-23T00:46:00;15.70;99.90
18733;DHT22;9495;51.210;2.934;2022-10-23T00:48:29;15.70;99.90
18733;DHT22;9495;51.210;2.934;2022-10-23T00:50:58;15.70;99.90
18733;DHT22;9495;51.210;2.934;2022-10-23T00:53:27;15.70;99.90
18733;DHT22;9495;51.210;2.934;2022-10-23T00:55:55;15.70;99.90
18733;DHT22;9495;51.210;2.934;2022-10-23T00:58:25;15.70;99.90
18733;DHT22;9495;51.210;2.934;2022-10-23T01:00:55;15.60;99.90
18733;DHT22;9495;51.210;2.934;2022-10-23T01:03:26;15.70;99.90
18733;DHT22;9495;51.210;2.934;2022-10-23T01:06:05;15.70;99.90
18733;DHT22;9495;51.210;2.934;2022-10-23T01:08:39;15.70;99.90
18733;DHT22;9495;51.210;2.934;2022-10-23T01:11:15;15.70;99.90
18733;DHT22;9495;51.210;2.934;2022-10-23T01:13:56;15.70;99.90
18733;DHT22;9495;51.210;2.934;2022-10-23T01:16:32;15.70;99.90
18733;DHT22;9495;51.210;2.934;2022-10-23T01:19:10;15.70;99.90
18733;DHT22;9495;51.210;2.934;2022-10-23T01:21:53;15.70;99.90
18733;DHT22;9495;51.210;2.934;2022-10-23T01:24:42;15.70;99.90
18733;DHT22;9495;51.210;2.934;2022-10-23T01:27:20;15.70;99.90
18733;DHT22;9495;51.210;2.934;2022-10-23T01:29:57;15.80;99.90
18733;DHT22;9495;51.210;2.934;2022-10-23T01:32:34;15.80;99.90
18733;DHT22;9495;51.210;2.934;2022-10-23T01:35:11;15.80;99.90
18733;DHT22;9495;51.210;2.934;2022-10-23T01:37:43;15.80;99.90
18733;DHT22;9495;51.210;2.934;2022-10-23T01:40:17;15.80;99.90
18733;DHT22;9495;51.210;2.934;2022-10-23T01:42:51;15.80;99.90
18733;DHT22;9495;51.210;2.934;2022-10-23T01:45:24;15.80;99.90
18733;DHT22;9495;51.210;2.934;2022-10-23T01:47:54;15.80;99.90
18733;DHT22;9495;51.210;2.934;2022-10-23T01:50:24;15.80;99.90
18733;DHT22;9495;51.210;2.934;2022-10-23T01:52:53;15.80;99.90
18733;DHT22;9495;51.210;2.934;2022-10-23T01:55:23;15.80;99.90
18733;DHT22;9495;51.210;2.934;2022-10-23T01:57:53;15.80;99.90
18733;DHT22;9495;51.210;2.934;2022-10-23T02:00:22;15.90;99.90
18733;DHT22;9495;51.210;2.934;2022-10-23T02:02:51;15.80;99.90
18733;DHT22;9495;51.210;2.934;2022-10-23T02:05:22;15.90;99.90
18733;DHT22;9495;51.210;2.934;2022-10-23T02:07:51;15.80;99.90
18733;DHT22;9495;51.210;2.934;2022-10-23T02:10:21;15.80;99.90
18733;DHT22;9495;51.210;2.934;2022-10-23T02:12:57;15.80;99.90
18733;DHT22;9495;51.210;2.934;2022-10-23T02:15:30;15.90;99.90
18733;DHT22;9495;51.210;2.934;2022-10-23T02:18:04;15.80;99.90
18733;DHT22;9495;51.210;2.934;2022-10-23T02:20:37;15.80;99.90
18733;DHT22;9495;51.210;2.934;2022-10-23T02:23:15;15.80;99.90
18733;DHT22;9495;51.210;2.934;2022-10-23T02:25:49;15.80;99.90
18733;DHT22;9495;51.210;2.934;2022-10-23T02:28:24;15.70;99.90
18733;DHT22;9495;51.210;2.934;2022-10-23T02:30:54;15.80;99.90
18733;DHT22;9495;51.210;2.934;2022-10-23T02:33:26;15.80;99.90
18733;DHT22;9495;51.210;2.934;2022-10-23T02:35:55;15.70;99.90
18733;DHT22;9495;51.210;2.934;2022-10-23T02:38:33;15.70;99.90
18733;DHT22;9495;51.210;2.934;2022-10-23T02:41:15;15.80;99.90
18733;DHT22;9495;51.210;2.934;2022-10-23T02:43:56;15.70;99.90
18733;DHT22;9495;51.210;2.934;2022-10-23T02:46:37;15.70;99.90
18733;DHT22;9495;51.210;2.934;2022-10-23T02:49:13;15.70;99.90
18733;DHT22;9495;51.210;2.934;2022-10-23T02:51:53;15.70;99.90
18733;DHT22;9495;51.210;2.934;2022-10-23T02:54:30;15.70;99.90
18733;DHT22;9495;51.210;2.934;2022-10-23T02:57:11;15.70;99.90
18733;DHT22;9495;51.210;2.934;2022-10-23T02:59:46;15.70;99.90
18733;DHT22;9495;51.210;2.934;2022-10-23T03:02:18;15.80;99.90
18733;DHT22;9495;51.210;2.934;2022-10-23T03:04:49;15.70;99.90
18733;DHT22;9495;51.210;2.934;2022-10-23T03:07:19;15.80;99.90
18733;DHT22;9495;51.210;2.934;2022-10-23T03:09:48;15.80;99.90
18733;DHT22;9495;51.210;2.934;2022-10-23T03:12:16;15.80;99.90
18733;DHT22;9495;51.210;2.934;2022-10-23T03:14:46;15.80;99.90
18733;DHT22;9495;51.210;2.934;2022-10-23T03:17:14;15.80;99.90
18733;DHT22;9495;51.210;2.934;2022-10-23T03:19:43;15.80;99.90
18733;DHT22;9495;51.210;2.934;2022-10-23T03:22:11;15.80;99.90
18733;DHT22;9495;51.210;2.934;2022-10-23T03:24:39;15.90;99.90
18733;DHT22;9495;51.210;2.934;2022-10-23T03:27:07;15.80;99.90
18733;DHT22;9495;51.210;2.934;2022-10-23T03:29:37;15.90;99.90
18733;DHT22;9495;51.210;2.934;2022-10-23T03:32:07;15.80;99.90
18733;DHT22;9495;51.210;2.934;2022-10-23T03:34:35;15.80;99.90
18733;DHT22;9495;51.210;2.934;2022-10-23T03:37:04;15.90;99.90
18733;DHT22;9495;51.210;2.934;2022-10-23T03:39:32;15.90;99.90
18733;DHT22;9495;51.210;2.934;2022-10-23T03:42:01;15.90;99.90
18733;DHT22;9495;51.210;2.934;2022-10-23T03:44:29;15.90;99.90
18733;DHT22;9495;51.210;2.934;2022-10-23T03:46:58;15.90;99.90
18733;DHT22;9495;51.210;2.934;2022-10-23T03:49:28;15.90;99.90
18733;DHT22;9495;51.210;2.934;2022-10-23T03:51:56;15.90;99.90
18733;DHT22;9495;51.210;2.934;2022-10-23T03:54:26;15.90;99.90
18733;DHT22;9495;51.210;2.934;2022-10-23T03:56:56;15.90;99.90
18733;DHT22;9495;51.210;2.934;2022-10-23T03:59:24;15.90;99.90
18733;DHT22;9495;51.210;2.934;2022-10-23T04:01:52;15.90;99.90
18733;DHT22;9495;51.210;2.934;2022-10-23T04:04:21;15.90;99.90
18733;DHT22;9495;51.210;2.934;2022-10-23T04:06:50;15.90;99.90
18733;DHT22;9495;51.210;2.934;2022-10-23T04:09:18;15.80;99.90
18733;DHT22;9495;51.210;2.934;2022-10-23T04:11:47;15.90;99.90
18733;DHT22;9495;51.210;2.934;2022-10-23T04:14:15;15.80;99.90
18733;DHT22;9495;51.210;2.934;2022-10-23T04:16:43;15.80;99.90
18733;DHT22;9495;51.210;2.934;2022-10-23T04:19:12;15.80;99.90
18733;DHT22;9495;51.210;2.934;2022-10-23T04:21:40;15.80;99.90
18733;DHT22;9495;51.210;2.934;2022-10-23T04:24:10;15.90;99.90
18733;DHT22;9495;51.210;2.934;2022-10-23T04:26:38;15.80;99.90
18733;DHT22;9495;51.210;2.934;2022-10-23T04:29:07;15.80;99.90
18733;DHT22;9495;51.210;2.934;2022-10-23T04:31:35;15.80;99.90
18733;DHT22;9495;51.210;2.934;2022-10-23T04:34:03;15.80;99.90
18733;DHT22;9495;51.210;2.934;2022-10-23T04:36:37;15.90;99.90
18733;DHT22;9495;51.210;2.934;2022-10-23T04:39:05;15.90;99.90
18733;DHT22;9495;51.210;2.934;2022-10-23T04:41:34;15.90;99.90
18733;DHT22;9495;51.210;2.934;2022-10-23T04:44:04;15.80;99.90
18733;DHT22;9495;51.210;2.934;2022-10-23T04:46:33;15.90;99.90
18733;DHT22;9495;51.210;2.934;2022-10-23T04:49:01;15.80;99.90
18733;DHT22;9495;51.210;2.934;2022-10-23T04:51:29;15.80;99.90
18733;DHT22;9495;51.210;2.934;2022-10-23T04:53:57;15.80;99.90
18733;DHT22;9495;51.210;2.934;2022-10-23T04:56:26;15.80;99.90
18733;DHT22;9495;51.210;2.934;2022-10-23T04:58:55;15.80;99.90
18733;DHT22;9495;51.210;2.934;2022-10-23T05:01:24;15.80;99.90
18733;DHT22;9495;51.210;2.934;2022-10-23T05:03:52;15.70;99.90
18733;DHT22;9495;51.210;2.934;2022-10-23T05:06:22;15.70;99.90
18733;DHT22;9495;51.210;2.934;2022-10-23T05:08:51;15.70;99.90
18733;DHT22;9495;51.210;2.934;2022-10-23T05:11:19;15.80;99.90
18733;DHT22;9495;51.210;2.934;2022-10-23T05:13:47;15.90;99.90
18733;DHT22;9495;51.210;2.934;2022-10-23T05:16:27;15.90;99.90
18733;DHT22;9495;51.210;2.934;2022-10-23T05:18:57;15.90;99.90
18733;DHT22;9495;51.210;2.934;2022-10-23T05:21:29;15.90;99.90
18733;DHT22;9495;51.210;2.934;2022-10-23T05:23:58;15.80;99.90
18733;DHT22;9495;51.210;2.934;2022-10-23T05:26:28;15.80;99.90
18733;DHT22;9495;51.210;2.934;2022-10-23T05:28:57;15.80;99.90
18733;DHT22;9495;51.210;2.934;2022-10-23T05:31:27;15.80;99.90
18733;DHT22;9495;51.210;2.934;2022-10-23T05:33:55;15.90;99.90
18733;DHT22;9495;51.210;2.934;2022-10-23T05:36:24;15.90;99.90
18733;DHT22;9495;51.210;2.934;2022-10-23T05:38:53;15.90;99.90
18733;DHT22;9495;51.210;2.934;2022-10-23T05:41:21;15.90;99.90
18733;DHT22;9495;51.210;2.934;2022-10-23T05:43:50;15.90;99.90
18733;DHT22;9495;51.210;2.934;2022-10-23T05:46:18;15.80;99.90
18733;DHT22;9495;51.210;2.934;2022-10-23T05:48:50;15.90;99.90
18733;DHT22;9495;51.210;2.934;2022-10-23T05:51:19;15.90;99.90
18733;DHT22;9495;51.210;2.934;2022-10-23T05:53:49;15.90;99.90
18733;DHT22;9495;51.210;2.934;2022-10-23T05:56:17;15.90;99.90
18733;DHT22;9495;51.210;2.934;2022-10-23T05:58:45;15.80;99.90
18733;DHT22;9495;51.210;2.934;2022-10-23T06:01:14;15.90;99.90
18733;DHT22;9495;51.210;2.934;2022-10-23T06:03:44;15.90;99.90
18733;DHT22;9495;51.210;2.934;2022-10-23T06:06:13;15.90;99.90
18733;DHT22;9495;51.210;2.934;2022-10-23T06:08:42;15.90;99.90
18733;DHT22;9495;51.210;2.934;2022-10-23T06:11:12;15.90;99.90
18733;DHT22;9495;51.210;2.934;2022-10-23T06:13:42;15.90;99.90
18733;DHT22;9495;51.210;2.934;2022-10-23T06:16:11;15.80;99.90
18733;DHT22;9495;51.210;2.934;2022-10-23T06:18:40;15.90;99.90
18733;DHT22;9495;51.210;2.934;2022-10-23T06:21:08;15.90;99.90
18733;DHT22;9495;51.210;2.934;2022-10-23T06:23:39;16.00;99.90
18733;DHT22;9495;51.210;2.934;2022-10-23T06:26:09;16.00;99.90
18733;DHT22;9495;51.210;2.934;2022-10-23T06:28:38;16.00;99.90
18733;DHT22;9495;51.210;2.934;2022-10-23T06:31:08;16.00;99.90
18733;DHT22;9495;51.210;2.934;2022-10-23T06:33:36;15.90;99.90
18733;DHT22;9495;51.210;2.934;2022-10-23T06:36:06;15.90;99.90
18733;DHT22;9495;51.210;2.934;2022-10-23T06:38:38;16.00;99.90
18733;DHT22;9495;51.210;2.934;2022-10-23T06:41:09;16.00;99.90
18733;DHT22;9495;51.210;2.934;2022-10-23T06:43:38;16.00;99.90
18733;DHT22;9495;51.210;2.934;2022-10-23T06:46:07;16.00;99.90
18733;DHT22;9495;51.210;2.934;2022-10-23T06:48:36;16.00;99.90
18733;DHT22;9495;51.210;2.934;2022-10-23T06:51:05;16.00;99.90
18733;DHT22;9495;51.210;2.934;2022-10-23T06:53:34;16.00;99.90
18733;DHT22;9495;51.210;2.934;2022-10-23T06:56:06;16.10;99.90
18733;DHT22;9495;51.210;2.934;2022-10-23T06:58:35;16.30;99.90
18733;DHT22;9495;51.210;2.934;2022-10-23T07:01:05;16.20;99.90
18733;DHT22;9495;51.210;2.934;2022-10-23T07:03:34;16.20;99.90
18733;DHT22;9495;51.210;2.934;2022-10-23T07:06:04;16.20;99.90
18733;DHT22;9495;51.210;2.934;2022-10-23T07:08:32;16.30;99.90
18733;DHT22;9495;51.210;2.934;2022-10-23T07:11:04;16.30;99.90
18733;DHT22;9495;51.210;2.934;2022-10-23T07:13:34;16.30;99.90
18733;DHT22;9495;51.210;2.934;2022-10-23T07:16:09;16.40;99.90
18733;DHT22;9495;51.210;2.934;2022-10-23T07:18:37;16.50;99.90
18733;DHT22;9495;51.210;2.934;2022-10-23T07:21:06;16.60;99.90
18733;DHT22;9495;51.210;2.934;2022-10-23T07:23:34;16.80;99.90
18733;DHT22;9495;51.210;2.934;2022-10-23T07:26:06;16.80;99.90
18733;DHT22;9495;51.210;2.934;2022-10-23T07:28:35;17.30;99.90
18733;DHT22;9495;51.210;2.934;2022-10-23T07:31:03;17.80;99.90
18733;DHT22;9495;51.210;2.934;2022-10-23T07:33:32;18.00;99.90
18733;DHT22;9495;51.210;2.934;2022-10-23T07:36:02;18.30;99.90
18733;DHT22;9495;51.210;2.934;2022-10-23T07:38:31;18.60;99.90
18733;DHT22;9495;51.210;2.934;2022-10-23T07:40:59;19.00;99.90
18733;DHT22;9495;51.210;2.934;2022-10-23T07:43:29;19.30;99.90
18733;DHT22;9495;51.210;2.934;2022-10-23T07:45:58;19.40;99.90
18733;DHT22;9495;51.210;2.934;2022-10-23T07:48:27;19.40;99.90
18733;DHT22;9495;51.210;2.934;2022-10-23T07:50:57;19.40;99.90
18733;DHT22;9495;51.210;2.934;2022-10-23T07:53:27;19.50;99.90
18733;DHT22;9495;51.210;2.934;2022-10-23T07:55:57;19.60;99.90
18733;DHT22;9495;51.210;2.934;2022-10-23T07:58:26;19.10;99.90
18733;DHT22;9495;51.210;2.934;2022-10-23T08:00:58;18.90;99.90
18733;DHT22;9495;51.210;2.934;2022-10-23T08:03:28;19.00;99.90
18733;DHT22;9495;51.210;2.934;2022-10-23T08:05:56;19.10;99.90
18733;DHT22;9495;51.210;2.934;2022-10-23T08:08:25;19.30;99.90
18733;DHT22;9495;51.210;2.934;2022-10-23T08:10:54;19.10;99.90
18733;DHT22;9495;51.210;2.934;2022-10-23T08:13:22;19.30;99.90
18733;DHT22;9495;51.210;2.934;2022-10-23T08:15:51;19.50;99.90
18733;DHT22;9495;51.210;2.934;2022-10-23T08:18:20;19.50;99.90
18733;DHT22;9495;51.210;2.934;2022-10-23T08:20:49;19.50;99.90
18733;DHT22;9495;51.210;2.934;2022-10-23T08:23:18;19.50;99.90
18733;DHT22;9495;51.210;2.934;2022-10-23T08:25:47;19.20;99.90
18733;DHT22;9495;51.210;2.934;2022-10-23T08:28:15;18.80;99.90
18733;DHT22;9495;51.210;2.934;2022-10-23T08:30:44;18.50;99.90
18733;DHT22;9495;51.210;2.934;2022-10-23T08:33:12;18.30;99.90
18733;DHT22;9495;51.210;2.934;2022-10-23T08:35:41;18.20;99.90
18733;DHT22;9495;51.210;2.934;2022-10-23T08:38:10;18.20;99.90
18733;DHT22;9495;51.210;2.934;2022-10-23T08:40:43;18.00;99.90
18733;DHT22;9495;51.210;2.934;2022-10-23T08:43:16;18.10;99.90
18733;DHT22;9495;51.210;2.934;2022-10-23T08:45:48;18.10;99.90
18733;DHT22;9495;51.210;2.934;2022-10-23T08:48:22;18.50;99.90
18733;DHT22;9495;51.210;2.934;2022-10-23T08:50:55;18.80;99.90
18733;DHT22;9495;51.210;2.934;2022-10-23T08:53:28;18.80;99.90
18733;DHT22;9495;51.210;2.934;2022-10-23T08:56:01;18.50;99.90
18733;DHT22;9495;51.210;2.934;2022-10-23T08:58:35;18.70;99.90
18733;DHT22;9495;51.210;2.934;2022-10-23T09:01:27;19.10;99.90
18733;DHT22;9495;51.210;2.934;2022-10-23T09:03:58;19.00;99.90
18733;DHT22;9495;51.210;2.934;2022-10-23T09:06:34;19.20;99.90
18733;DHT22;9495;51.210;2.934;2022-10-23T09:09:27;19.30;99.90
18733;DHT22;9495;51.210;2.934;2022-10-23T09:12:04;19.40;99.90
18733;DHT22;9495;51.210;2.934;2022-10-23T09:14:53;19.30;99.90
18733;DHT22;9495;51.210;2.934;2022-10-23T09:17:24;19.40;99.90
18733;DHT22;9495;51.210;2.934;2022-10-23T09:19:59;19.50;99.90
18733;DHT22;9495;51.210;2.934;2022-10-23T09:22:33;19.50;99.90
18733;DHT22;9495;51.210;2.934;2022-10-23T09:25:01;19.40;99.90
18733;DHT22;9495;51.210;2.934;2022-10-23T09:27:30;19.50;99.90
18733;DHT22;9495;51.210;2.934;2022-10-23T09:29:58;19.50;99.90
18733;DHT22;9495;51.210;2.934;2022-10-23T09:32:34;19.70;99.90
18733;DHT22;9495;51.210;2.934;2022-10-23T09:35:04;19.70;99.90
18733;DHT22;9495;51.210;2.934;2022-10-23T09:37:34;19.80;99.90
18733;DHT22;9495;51.210;2.934;2022-10-23T09:40:16;19.70;99.90
18733;DHT22;9495;51.210;2.934;2022-10-23T09:42:53;19.60;99.90
18733;DHT22;9495;51.210;2.934;2022-10-23T09:45:27;19.70;99.90
18733;DHT22;9495;51.210;2.934;2022-10-23T09:48:12;19.60;99.90
18733;DHT22;9495;51.210;2.934;2022-10-23T09:50:48;19.60;99.90
18733;DHT22;9495;51.210;2.934;2022-10-23T09:53:25;19.70;99.90
18733;DHT22;9495;51.210;2.934;2022-10-23T09:55:55;20.00;99.90
18733;DHT22;9495;51.210;2.934;2022-10-23T09:58:32;20.00;99.90
18733;DHT22;9495;51.210;2.934;2022-10-23T10:01:01;19.80;99.90
18733;DHT22;9495;51.210;2.934;2022-10-23T10:03:30;19.90;99.90
18733;DHT22;9495;51.210;2.934;2022-10-23T10:06:00;20.10;99.90
18733;DHT22;9495;51.210;2.934;2022-10-23T10:08:36;20.10;99.90
18733;DHT22;9495;51.210;2.934;2022-10-23T10:11:13;20.10;99.90
18733;DHT22;9495;51.210;2.934;2022-10-23T10:14:15;20.10;99.90
18733;DHT22;9495;51.210;2.934;2022-10-23T10:16:50;20.30;99.90
18733;DHT22;9495;51.210;2.934;2022-10-23T10:19:30;20.10;99.90
18733;DHT22;9495;51.210;2.934;2022-10-23T10:22:04;20.20;99.90
18733;DHT22;9495;51.210;2.934;2022-10-23T10:24:40;20.20;99.90
18733;DHT22;9495;51.210;2.934;2022-10-23T10:27:19;20.30;99.90
18733;DHT22;9495;51.210;2.934;2022-10-23T10:30:01;20.30;99.90
18733;DHT22;9495;51.210;2.934;2022-10-23T10:32:36;20.40;99.90
18733;DHT22;9495;51.210;2.934;2022-10-23T10:35:30;20.40;99.90
18733;DHT22;9495;51.210;2.934;2022-10-23T10:38:22;20.30;99.90
18733;DHT22;9495;51.210;2.934;2022-10-23T10:41:16;20.20;99.90
18733;DHT22;9495;51.210;2.934;2022-10-23T10:43:56;20.30;99.90
18733;DHT22;9495;51.210;2.934;2022-10-23T10:46:30;20.40;99.90
18733;DHT22;9495;51.210;2.934;2022-10-23T10:49:09;20.30;99.90
18733;DHT22;9495;51.210;2.934;2022-10-23T10:51:45;20.40;99.90
18733;DHT22;9495;51.210;2.934;2022-10-23T10:54:25;20.50;99.90
18733;DHT22;9495;51.210;2.934;2022-10-23T10:56:57;20.60;99.90
18733;DHT22;9495;51.210;2.934;2022-10-23T10:59:29;20.60;99.90
18733;DHT22;9495;51.210;2.934;2022-10-23T11:02:04;20.50;99.90
18733;DHT22;9495;51.210;2.934;2022-10-23T11:04:43;20.50;99.90
18733;DHT22;9495;51.210;2.934;2022-10-23T11:07:14;20.50;99.90
18733;DHT22;9495;51.210;2.934;2022-10-23T11:09:44;20.60;99.90
18733;DHT22;9495;51.210;2.934;2022-10-23T11:12:17;20.60;99.90
18733;DHT22;9495;51.210;2.934;2022-10-23T11:14:46;20.60;99.90
18733;DHT22;9495;51.210;2.934;2022-10-23T11:17:19;20.70;99.90
18733;DHT22;9495;51.210;2.934;2022-10-23T11:19:56;20.70;99.90
18733;DHT22;9495;51.210;2.934;2022-10-23T11:22:32;20.70;99.90
18733;DHT22;9495;51.210;2.934;2022-10-23T11:25:21;20.70;99.90
18733;DHT22;9495;51.210;2.934;2022-10-23T11:28:05;20.80;99.90
18733;DHT22;9495;51.210;2.934;2022-10-23T11:30:52;20.80;99.90
18733;DHT22;9495;51.210;2.934;2022-10-23T11:33:41;20.70;99.90
18733;DHT22;9495;51.210;2.934;2022-10-23T11:36:16;20.80;99.90
18733;DHT22;9495;51.210;2.934;2022-10-23T11:38:47;20.90;99.90
18733;DHT22;9495;51.210;2.934;2022-10-23T11:41:19;20.90;99.90
18733;DHT22;9495;51.210;2.934;2022-10-23T11:43:55;20.80;99.90
18733;DHT22;9495;51.210;2.934;2022-10-23T11:46:31;20.80;99.90
18733;DHT22;9495;51.210;2.934;2022-10-23T11:49:02;20.80;99.90
18733;DHT22;9495;51.210;2.934;2022-10-23T11:51:33;20.80;99.90
18733;DHT22;9495;51.210;2.934;2022-10-23T11:54:22;20.70;99.90
18733;DHT22;9495;51.210;2.934;2022-10-23T11:57:08;20.70;99.90
18733;DHT22;9495;51.210;2.934;2022-10-23T11:59:50;20.90;99.90
18733;DHT22;9495;51.210;2.934;2022-10-23T12:02:26;20.90;99.90
18733;DHT22;9495;51.210;2.934;2022-10-23T12:05:02;20.70;99.90
18733;DHT22;9495;51.210;2.934;2022-10-23T12:07:34;20.80;99.90
18733;DHT22;9495;51.210;2.934;2022-10-23T12:10:05;20.80;99.90
18733;DHT22;9495;51.210;2.934;2022-10-23T12:12:34;20.80;99.90
18733;DHT22;9495;51.210;2.934;2022-10-23T12:15:18;20.90;99.90
18733;DHT22;9495;51.210;2.934;2022-10-23T12:17:47;21.00;99.90
18733;DHT22;9495;51.210;2.934;2022-10-23T12:20:26;21.00;99.90
18733;DHT22;9495;51.210;2.934;2022-10-23T12:23:08;21.00;99.90
18733;DHT22;9495;51.210;2.934;2022-10-23T12:25:47;21.00;99.90
18733;DHT22;9495;51.210;2.934;2022-10-23T12:28:27;21.00;99.90
18733;DHT22;9495;51.210;2.934;2022-10-23T12:31:05;21.00;99.90
18733;DHT22;9495;51.210;2.934;2022-10-23T12:33:42;21.00;99.90
18733;DHT22;9495;51.210;2.934;2022-10-23T12:36:34;21.10;99.90
18733;DHT22;9495;51.210;2.934;2022-10-23T12:39:23;21.10;99.90
18733;DHT22;9495;51.210;2.934;2022-10-23T12:41:52;21.10;99.90
18733;DHT22;9495;51.210;2.934;2022-10-23T12:44:21;21.10;99.90
18733;DHT22;9495;51.210;2.934;2022-10-23T12:46:54;21.10;99.90
18733;DHT22;9495;51.210;2.934;2022-10-23T12:49:24;21.10;99.90
18733;DHT22;9495;51.210;2.934;2022-10-23T12:51:58;21.10;99.90
18733;DHT22;9495;51.210;2.934;2022-10-23T12:54:27;21.10;99.90
18733;DHT22;9495;51.210;2.934;2022-10-23T12:56:57;21.10;99.90
18733;DHT22;9495;51.210;2.934;2022-10-23T12:59:32;21.10;99.90
18733;DHT22;9495;51.210;2.934;2022-10-23T13:02:22;21.10;99.90
18733;DHT22;9495;51.210;2.934;2022-10-23T13:04:51;21.20;99.90
18733;DHT22;9495;51.210;2.934;2022-10-23T13:07:24;21.20;99.90
18733;DHT22;9495;51.210;2.934;2022-10-23T13:09:53;21.10;99.90
18733;DHT22;9495;51.210;2.934;2022-10-23T13:12:24;21.10;99.90
18733;DHT22;9495;51.210;2.934;2022-10-23T13:14:56;21.10;99.90
18733;DHT22;9495;51.210;2.934;2022-10-23T13:17:35;21.10;99.90
18733;DHT22;9495;51.210;2.934;2022-10-23T13:20:09;21.00;99.90
18733;DHT22;9495;51.210;2.934;2022-10-23T13:22:39;21.00;99.90
18733;DHT22;9495;51.210;2.934;2022-10-23T13:25:24;21.00;99.90
18733;DHT22;9495;51.210;2.934;2022-10-23T13:28:04;21.10;99.90
18733;DHT22;9495;51.210;2.934;2022-10-23T13:30:39;21.10;99.90
18733;DHT22;9495;51.210;2.934;2022-10-23T13:33:21;21.10;99.90
18733;DHT22;9495;51.210;2.934;2022-10-23T13:35:57;21.10;99.90
18733;DHT22;9495;51.210;2.934;2022-10-23T13:38:30;21.20;99.90
18733;DHT22;9495;51.210;2.934;2022-10-23T13:40:59;21.10;99.90
18733;DHT22;9495;51.210;2.934;2022-10-23T13:43:29;21.10;99.90
18733;DHT22;9495;51.210;2.934;2022-10-23T13:45:58;21.20;99.90
18733;DHT22;9495;51.210;2.934;2022-10-23T13:48:28;21.30;99.90
18733;DHT22;9495;51.210;2.934;2022-10-23T13:51:05;21.20;99.90
18733;DHT22;9495;51.210;2.934;2022-10-23T13:53:37;21.30;99.90
18733;DHT22;9495;51.210;2.934;2022-10-23T13:56:05;21.20;99.90
18733;DHT22;9495;51.210;2.934;2022-10-23T13:58:34;21.20;99.90
18733;DHT22;9495;51.210;2.934;2022-10-23T14:01:02;21.20;99.90
18733;DHT22;9495;51.210;2.934;2022-10-23T14:03:32;21.20;99.90
18733;DHT22;9495;51.210;2.934;2022-10-23T14:06:01;21.20;99.90
18733;DHT22;9495;51.210;2.934;2022-10-23T14:08:29;21.20;99.90
18733;DHT22;9495;51.210;2.934;2022-10-23T14:10:58;21.20;99.90
18733;DHT22;9495;51.210;2.934;2022-10-23T14:13:26;21.20;99.90
18733;DHT22;9495;51.210;2.934;2022-10-23T14:15:55;21.20;99.90
18733;DHT22;9495;51.210;2.934;2022-10-23T14:18:23;21.20;99.90
18733;DHT22;9495;51.210;2.934;2022-10-23T14:20:53;21.20;99.90
18733;DHT22;9495;51.210;2.934;2022-10-23T14:23:21;21.10;99.90
18733;DHT22;9495;51.210;2.934;2022-10-23T14:25:50;21.10;99.90
18733;DHT22;9495;51.210;2.934;2022-10-23T14:28:18;21.10;99.90
18733;DHT22;9495;51.210;2.934;2022-10-23T14:30:47;21.10;99.90
18733;DHT22;9495;51.210;2.934;2022-10-23T14:33:15;21.20;99.90
18733;DHT22;9495;51.210;2.934;2022-10-23T14:35:43;21.30;99.90
18733;DHT22;9495;51.210;2.934;2022-10-23T14:38:13;21.30;99.90
18733;DHT22;9495;51.210;2.934;2022-10-23T14:40:41;21.30;99.90
18733;DHT22;9495;51.210;2.934;2022-10-23T14:43:09;21.20;99.90
18733;DHT22;9495;51.210;2.934;2022-10-23T14:45:37;21.30;99.90
18733;DHT22;9495;51.210;2.934;2022-10-23T14:48:06;21.30;99.90
18733;DHT22;9495;51.210;2.934;2022-10-23T14:50:35;21.30;99.90
18733;DHT22;9495;51.210;2.934;2022-10-23T14:53:04;21.30;99.90
18733;DHT22;9495;51.210;2.934;2022-10-23T14:55:34;21.30;99.90
18733;DHT22;9495;51.210;2.934;2022-10-23T14:58:02;21.30;99.90
18733;DHT22;9495;51.210;2.934;2022-10-23T15:00:31;21.30;99.90
18733;DHT22;9495;51.210;2.934;2022-10-23T15:02:59;21.30;99.90
18733;DHT22;9495;51.210;2.934;2022-10-23T15:05:27;21.30;99.90
18733;DHT22;9495;51.210;2.934;2022-10-23T15:07:56;21.40;99.90
18733;DHT22;9495;51.210;2.934;2022-10-23T15:10:25;21.40;99.90
18733;DHT22;9495;51.210;2.934;2022-10-23T15:12:54;21.40;99.90
18733;DHT22;9495;51.210;2.934;2022-10-23T15:15:22;21.40;99.90
18733;DHT22;9495;51.210;2.934;2022-10-23T15:17:51;21.40;99.90
18733;DHT22;9495;51.210;2.934;2022-10-23T15:20:19;21.40;99.90
18733;DHT22;9495;51.210;2.934;2022-10-23T15:22:49;21.40;99.90
18733;DHT22;9495;51.210;2.934;2022-10-23T15:25:17;21.30;99.90
18733;DHT22;9495;51.210;2.934;2022-10-23T15:27:45;21.30;99.90
18733;DHT22;9495;51.210;2.934;2022-10-23T15:30:16;21.30;99.90
18733;DHT22;9495;51.210;2.934;2022-10-23T15:32:44;21.30;99.90
18733;DHT22;9495;51.210;2.934;2022-10-23T15:35:13;21.30;99.90
18733;DHT22;9495;51.210;2.934;2022-10-23T15:37:41;21.30;99.90
18733;DHT22;9495;51.210;2.934;2022-10-23T15:40:10;21.30;99.90
18733;DHT22;9495;51.210;2.934;2022-10-23T15:42:38;21.30;99.90
18733;DHT22;9495;51.210;2.934;2022-10-23T15:45:08;21.20;99.90
18733;DHT22;9495;51.210;2.934;2022-10-23T15:47:38;21.30;99.90
18733;DHT22;9495;51.210;2.934;2022-10-23T15:50:08;21.30;99.90
18733;DHT22;9495;51.210;2.934;2022-10-23T15:52:36;21.30;99.90
18733;DHT22;9495;51.210;2.934;2022-10-23T15:55:05;21.30;99.90
18733;DHT22;9495;51.210;2.934;2022-10-23T15:57:37;21.30;99.90
18733;DHT22;9495;51.210;2.934;2022-10-23T16:00:08;21.30;99.90
18733;DHT22;9495;51.210;2.934;2022-10-23T16:02:38;21.40;99.90
18733;DHT22;9495;51.210;2.934;2022-10-23T16:05:07;21.30;99.90
18733;DHT22;9495;51.210;2.934;2022-10-23T16:07:35;21.30;99.90
18733;DHT22;9495;51.210;2.934;2022-10-23T16:10:04;21.40;99.90
18733;DHT22;9495;51.210;2.934;2022-10-23T16:12:32;21.40;99.90
18733;DHT22;9495;51.210;2.934;2022-10-23T16:15:00;21.30;99.90